createdAt,value
2018-12-17T00:00:27.754Z,29.80
2018-12-17T00:01:27.742Z,28.20
2018-12-17T00:02:27.728Z,29.30
2018-12-17T00:03:27.734Z,27.80
2018-12-17T00:04:27.730Z,28.60
2018-12-17T00:05:27.717Z,28.40
2018-12-17T00:06:27.708Z,28.90
2018-12-17T00:07:27.701Z,28.50
2018-12-17T00:08:31.993Z,29.00
2018-12-17T00:09:27.683Z,27.70
2018-12-17T00:10:27.661Z,29.30
2018-12-17T00:11:27.665Z,27.90
2018-12-17T00:12:27.622Z,28.40
2018-12-17T00:13:27.619Z,28.50
2018-12-17T00:14:27.597Z,28.30
2018-12-17T00:15:27.588Z,27.90
2018-12-17T00:16:27.576Z,28.20
2018-12-17T00:17:27.564Z,28.40
2018-12-17T00:18:27.554Z,30.10
2018-12-17T00:19:27.544Z,28.20
2018-12-17T00:20:27.533Z,30.00
2018-12-17T00:21:27.521Z,29.80
2018-12-17T00:22:27.515Z,28.60
2018-12-17T00:23:27.501Z,29.10
2018-12-17T00:24:27.489Z,28.30
2018-12-17T00:25:27.479Z,29.50
2018-12-17T00:26:27.467Z,28.90
2018-12-17T00:27:27.456Z,29.00
2018-12-17T00:28:27.448Z,29.00
2018-12-17T00:29:27.435Z,29.00
2018-12-17T00:30:27.447Z,28.90
2018-12-17T00:31:27.414Z,28.10
2018-12-17T00:32:27.403Z,29.50
2018-12-17T00:33:27.394Z,29.50
2018-12-17T00:34:27.381Z,30.00
2018-12-17T00:35:27.369Z,29.40
2018-12-17T00:36:27.360Z,28.60
2018-12-17T00:37:27.349Z,28.70
2018-12-17T00:38:27.338Z,30.90
2018-12-17T00:39:27.326Z,29.40
2018-12-17T00:40:27.317Z,28.50
2018-12-17T00:41:27.305Z,29.20
2018-12-17T00:42:27.297Z,29.60
2018-12-17T00:43:27.282Z,28.90
2018-12-17T00:44:27.273Z,30.10
2018-12-17T00:45:27.261Z,29.30
2018-12-17T00:46:27.251Z,29.80
2018-12-17T00:47:27.239Z,30.40
2018-12-17T00:48:27.230Z,28.40
2018-12-17T00:49:27.224Z,29.50
2018-12-17T00:50:27.206Z,29.40
2018-12-17T00:51:27.198Z,29.50
2018-12-17T00:52:27.188Z,28.90
2018-12-17T00:53:45.311Z,29.10
2018-12-17T00:55:08.721Z,27.40
2018-12-17T00:56:08.710Z,30.10
2018-12-17T00:57:50.255Z,27.20
2018-12-17T00:58:50.242Z,29.00
2018-12-17T01:00:32.274Z,29.60
2018-12-17T01:01:32.264Z,29.10
2018-12-17T01:02:32.253Z,29.50
2018-12-17T01:03:32.241Z,29.40
2018-12-17T01:04:32.229Z,29.80
2018-12-17T01:05:32.222Z,30.40
2018-12-17T01:06:32.209Z,29.10
2018-12-17T01:07:32.201Z,29.80
2018-12-17T01:08:32.187Z,29.70
2018-12-17T01:09:32.181Z,29.60
2018-12-17T01:10:32.165Z,29.80
2018-12-17T01:11:32.154Z,29.30
2018-12-17T01:12:32.145Z,29.80
2018-12-17T01:13:32.132Z,30.90
2018-12-17T01:14:32.122Z,30.60
2018-12-17T01:15:32.111Z,30.40
2018-12-17T01:16:32.107Z,31.60
2018-12-17T01:17:32.092Z,29.50
2018-12-17T01:18:32.081Z,30.60
2018-12-17T01:19:32.084Z,29.80
2018-12-17T01:20:32.056Z,29.30
2018-12-17T01:21:32.046Z,30.70
2018-12-17T01:22:32.037Z,30.90
2018-12-17T01:23:32.024Z,30.30
2018-12-17T01:24:32.012Z,30.60
2018-12-17T01:25:32.002Z,31.60
2018-12-17T01:26:31.993Z,30.10
2018-12-17T01:27:31.980Z,29.40
2018-12-17T01:28:31.968Z,29.60
2018-12-17T01:29:31.962Z,30.10
2018-12-17T01:30:31.947Z,31.50
2018-12-17T01:31:31.941Z,30.10
2018-12-17T01:32:31.927Z,28.60
2018-12-17T01:33:31.919Z,29.30
2018-12-17T01:34:31.904Z,29.70
2018-12-17T01:35:31.892Z,29.60
2018-12-17T01:36:31.882Z,30.20
2018-12-17T01:37:31.871Z,30.10
2018-12-17T01:38:31.859Z,31.40
2018-12-17T01:39:31.854Z,31.50
2018-12-17T01:40:31.843Z,30.50
2018-12-17T01:41:31.827Z,30.10
2018-12-17T01:42:31.818Z,29.80
2018-12-17T01:43:31.806Z,30.10
2018-12-17T01:44:31.796Z,30.50
2018-12-17T01:45:31.788Z,31.60
2018-12-17T01:46:31.776Z,30.50
2018-12-17T01:47:31.764Z,30.60
2018-12-17T01:48:31.751Z,31.40
2018-12-17T01:49:31.741Z,30.90
2018-12-17T01:50:31.731Z,30.10
2018-12-17T01:51:31.718Z,30.60
2018-12-17T01:52:31.707Z,30.80
2018-12-17T01:53:31.698Z,30.70
2018-12-17T01:54:31.685Z,30.30
2018-12-17T01:55:31.674Z,29.40
2018-12-17T01:56:31.664Z,29.90
2018-12-17T01:57:31.653Z,29.60
2018-12-17T01:58:31.642Z,30.20
2018-12-17T01:59:31.632Z,30.60
2018-12-17T02:00:31.622Z,30.40
2018-12-17T02:01:31.610Z,31.10
2018-12-17T02:02:31.599Z,30.20
2018-12-17T02:03:31.588Z,30.70
2018-12-17T02:04:31.579Z,29.40
2018-12-17T02:05:31.568Z,29.30
2018-12-17T02:06:31.556Z,29.20
2018-12-17T02:07:31.545Z,29.60
2018-12-17T02:08:31.540Z,30.50
2018-12-17T02:09:31.521Z,29.90
2018-12-17T02:10:31.513Z,29.60
2018-12-17T02:11:31.500Z,29.60
2018-12-17T02:12:31.492Z,29.80
2018-12-17T02:13:31.479Z,28.40
2018-12-17T02:14:31.466Z,29.80
2018-12-17T02:15:31.458Z,29.20
2018-12-17T02:16:31.446Z,30.20
2018-12-17T02:17:31.440Z,30.80
2018-12-17T02:18:31.424Z,28.90
2018-12-17T02:19:31.414Z,30.90
2018-12-17T02:20:31.405Z,29.80
2018-12-17T02:21:31.394Z,30.20
2018-12-17T02:22:31.381Z,30.50
2018-12-17T02:23:31.370Z,31.00
2018-12-17T02:24:31.359Z,29.80
2018-12-17T02:25:31.353Z,28.80
2018-12-17T02:26:31.336Z,29.50
2018-12-17T02:27:31.325Z,29.30
2018-12-17T02:28:36.116Z,28.80
2018-12-17T02:29:32.305Z,28.80
2018-12-17T02:30:31.294Z,29.90
2018-12-17T02:31:31.282Z,30.40
2018-12-17T02:32:31.272Z,29.20
2018-12-17T02:33:31.261Z,29.80
2018-12-17T02:34:31.251Z,30.40
2018-12-17T02:35:31.239Z,29.20
2018-12-17T02:36:31.231Z,31.50
2018-12-17T02:37:31.217Z,28.90
2018-12-17T02:38:31.206Z,30.20
2018-12-17T02:39:31.195Z,30.00
2018-12-17T02:40:31.185Z,29.80
2018-12-17T02:41:31.173Z,29.60
2018-12-17T02:42:31.172Z,30.10
2018-12-17T02:43:31.152Z,29.30
2018-12-17T02:44:31.141Z,29.20
2018-12-17T02:45:31.132Z,30.50
2018-12-17T02:46:31.119Z,29.70
2018-12-17T02:47:31.108Z,29.80
2018-12-17T02:48:31.098Z,29.80
2018-12-17T02:49:31.086Z,29.10
2018-12-17T02:50:31.075Z,30.00
2018-12-17T02:51:31.068Z,29.00
2018-12-17T02:52:31.056Z,29.00
2018-12-17T02:53:31.048Z,30.10
2018-12-17T02:54:31.036Z,30.50
2018-12-17T02:55:31.021Z,30.90
2018-12-17T02:56:31.010Z,29.70
2018-12-17T02:57:49.137Z,29.60
2018-12-17T02:59:12.541Z,28.70
2018-12-17T03:00:30.665Z,30.40
2018-12-17T03:02:12.217Z,28.00
2018-12-17T03:03:12.191Z,30.40
2018-12-17T03:04:35.601Z,28.70
2018-12-17T03:05:35.591Z,29.00
2018-12-17T03:07:17.138Z,25.00
2018-12-17T03:08:17.123Z,30.20
2018-12-17T03:09:58.670Z,29.00
2018-12-17T03:10:58.658Z,30.70
2018-12-17T03:12:29.128Z,27.90
2018-12-17T03:13:29.114Z,30.10
2018-12-17T03:15:10.678Z,27.40
2018-12-17T03:16:10.645Z,29.50
2018-12-17T03:17:52.386Z,27.80
2018-12-17T03:18:52.375Z,30.60
2018-12-17T03:20:33.921Z,28.40
2018-12-17T03:21:33.907Z,30.60
2018-12-17T03:23:04.375Z,27.60
2018-12-17T03:24:04.368Z,28.40
2018-12-17T03:25:45.902Z,28.00
2018-12-17T03:26:45.891Z,29.40
2018-12-17T03:28:27.434Z,25.80
2018-12-17T03:29:27.420Z,29.70
2018-12-17T03:31:09.000Z,26.00
2018-12-17T03:32:08.956Z,29.80
2018-12-17T03:33:08.944Z,30.50
2018-12-17T03:34:08.936Z,30.10
2018-12-17T03:35:08.923Z,29.60
2018-12-17T03:36:08.909Z,29.20
2018-12-17T03:37:08.899Z,30.10
2018-12-17T03:38:08.890Z,28.90
2018-12-17T03:39:08.878Z,29.50
2018-12-17T03:40:08.869Z,29.80
2018-12-17T03:41:08.856Z,29.00
2018-12-17T03:42:08.846Z,30.00
2018-12-17T03:43:08.840Z,29.20
2018-12-17T03:44:08.827Z,29.20
2018-12-17T03:45:08.814Z,29.10
2018-12-17T03:46:08.803Z,30.40
2018-12-17T03:47:08.791Z,30.00
2018-12-17T03:48:08.780Z,29.60
2018-12-17T03:49:08.770Z,29.20
2018-12-17T03:50:08.757Z,28.80
2018-12-17T03:51:08.750Z,31.20
2018-12-17T03:52:08.737Z,29.70
2018-12-17T03:53:08.725Z,30.40
2018-12-17T03:54:08.716Z,30.20
2018-12-17T03:55:08.705Z,29.40
2018-12-17T03:56:08.702Z,29.10
2018-12-17T03:57:08.682Z,30.70
2018-12-17T03:58:08.672Z,29.40
2018-12-17T03:59:08.662Z,30.20
2018-12-17T04:00:08.674Z,29.50
2018-12-17T04:01:08.638Z,29.70
2018-12-17T04:02:08.627Z,30.30
2018-12-17T04:03:08.617Z,29.80
2018-12-17T04:04:08.605Z,30.90
2018-12-17T04:05:08.595Z,29.70
2018-12-17T04:06:08.584Z,31.20
2018-12-17T04:07:08.577Z,30.60
2018-12-17T04:08:08.565Z,31.50
2018-12-17T04:09:08.554Z,30.90
2018-12-17T04:10:08.542Z,31.60
2018-12-17T04:11:08.528Z,30.90
2018-12-17T04:12:08.524Z,30.30
2018-12-17T04:13:08.509Z,31.10
2018-12-17T04:14:08.497Z,31.20
2018-12-17T04:15:08.487Z,30.30
2018-12-17T04:16:08.474Z,30.80
2018-12-17T04:17:08.464Z,30.10
2018-12-17T04:18:08.455Z,29.60
2018-12-17T04:19:08.442Z,30.00
2018-12-17T04:20:08.430Z,28.80
2018-12-17T04:21:08.422Z,29.90
2018-12-17T04:22:08.411Z,29.10
2018-12-17T04:23:08.399Z,30.00
2018-12-17T04:24:08.388Z,29.30
2018-12-17T04:25:08.376Z,29.00
2018-12-17T04:26:08.367Z,30.50
2018-12-17T04:27:08.354Z,30.80
2018-12-17T04:28:08.345Z,30.10
2018-12-17T04:29:08.347Z,30.30
2018-12-17T04:30:08.323Z,30.80
2018-12-17T04:31:08.312Z,30.00
2018-12-17T04:32:08.300Z,30.80
2018-12-17T04:33:08.289Z,30.80
2018-12-17T04:34:08.279Z,29.70
2018-12-17T04:35:08.268Z,28.90
2018-12-17T04:36:08.259Z,28.50
2018-12-17T04:37:08.245Z,29.40
2018-12-17T04:38:08.235Z,29.00
2018-12-17T04:39:08.223Z,29.60
2018-12-17T04:40:08.213Z,29.70
2018-12-17T04:41:08.204Z,29.60
2018-12-17T04:42:08.194Z,31.80
2018-12-17T04:43:08.183Z,41.00
2018-12-17T04:44:08.171Z,40.50
2018-12-17T04:45:08.162Z,39.90
2018-12-17T04:46:08.149Z,35.40
2018-12-17T04:47:08.138Z,33.20
2018-12-17T04:48:08.126Z,32.10
2018-12-17T04:49:08.119Z,32.70
2018-12-17T04:50:08.105Z,30.60
2018-12-17T04:51:08.094Z,30.30
2018-12-17T04:52:08.086Z,30.50
2018-12-17T04:53:08.073Z,30.90
2018-12-17T04:54:08.063Z,30.60
2018-12-17T04:55:08.064Z,30.00
2018-12-17T04:56:08.068Z,29.60
2018-12-17T04:57:08.029Z,29.90
2018-12-17T04:58:08.018Z,30.20
2018-12-17T04:59:14.396Z,29.80
2018-12-17T05:00:08.997Z,30.10
2018-12-17T05:02:34.947Z,27.80
2018-12-17T05:03:53.066Z,28.20
2018-12-17T05:06:43.915Z,26.00
2018-12-17T05:07:43.900Z,28.30
2018-12-17T05:08:43.891Z,29.40
2018-12-17T05:09:44.540Z,29.40
2018-12-17T05:10:43.875Z,30.90
2018-12-17T05:11:43.856Z,29.00
2018-12-17T05:12:43.913Z,28.50
2018-12-17T05:13:43.847Z,29.60
2018-12-17T05:14:43.824Z,29.90
2018-12-17T05:15:43.813Z,30.60
2018-12-17T05:16:43.802Z,30.60
2018-12-17T05:17:43.794Z,29.30
2018-12-17T05:18:43.781Z,29.10
2018-12-17T05:19:43.773Z,28.80
2018-12-17T05:20:43.757Z,29.90
2018-12-17T05:21:43.747Z,30.60
2018-12-17T05:22:43.738Z,29.10
2018-12-17T05:23:43.731Z,30.20
2018-12-17T05:24:43.717Z,29.50
2018-12-17T05:25:43.705Z,29.00
2018-12-17T05:26:43.694Z,28.90
2018-12-17T05:27:43.682Z,28.00
2018-12-17T05:28:43.676Z,29.30
2018-12-17T05:29:43.663Z,30.40
2018-12-17T05:30:43.650Z,30.60
2018-12-17T05:31:43.638Z,29.70
2018-12-17T05:32:43.631Z,31.00
2018-12-17T05:33:43.615Z,33.70
2018-12-17T05:34:43.604Z,32.30
2018-12-17T05:35:43.594Z,32.00
2018-12-17T05:36:43.584Z,36.50
2018-12-17T05:37:43.574Z,33.60
2018-12-17T05:38:43.562Z,63.30
2018-12-17T05:39:43.557Z,60.10
2018-12-17T05:40:43.540Z,58.80
2018-12-17T05:41:43.535Z,64.30
2018-12-17T05:42:43.521Z,57.40
2018-12-17T05:43:43.508Z,47.70
2018-12-17T05:44:43.495Z,45.00
2018-12-17T05:45:43.491Z,36.70
2018-12-17T05:46:43.473Z,34.30
2018-12-17T05:47:43.462Z,33.60
2018-12-17T05:48:43.451Z,32.10
2018-12-17T05:49:43.440Z,31.50
2018-12-17T05:50:43.431Z,30.70
2018-12-17T05:51:43.418Z,30.60
2018-12-17T05:52:43.410Z,30.40
2018-12-17T05:53:43.396Z,29.60
2018-12-17T05:54:43.385Z,30.30
2018-12-17T05:55:44.301Z,29.70
2018-12-17T05:56:43.363Z,31.10
2018-12-17T05:57:43.351Z,30.40
2018-12-17T05:58:43.339Z,29.70
2018-12-17T05:59:43.329Z,29.30
2018-12-17T06:00:43.319Z,31.70
2018-12-17T06:01:43.308Z,32.40
2018-12-17T06:02:43.296Z,30.90
2018-12-17T06:03:43.288Z,32.30
2018-12-17T06:04:43.273Z,33.10
2018-12-17T06:05:43.263Z,33.90
2018-12-17T06:06:43.254Z,36.90
2018-12-17T06:07:43.240Z,38.50
2018-12-17T06:08:43.243Z,68.00
2018-12-17T06:09:43.218Z,88.20
2018-12-17T06:10:43.213Z,96.40
2018-12-17T06:11:43.199Z,104.20
2018-12-17T06:12:43.251Z,87.70
2018-12-17T06:13:43.177Z,86.20
2018-12-17T06:14:43.166Z,76.20
2018-12-17T06:15:43.153Z,64.40
2018-12-17T06:16:43.143Z,42.20
2018-12-17T06:17:43.130Z,40.00
2018-12-17T06:18:43.121Z,37.90
2018-12-17T06:19:43.109Z,32.70
2018-12-17T06:20:43.097Z,32.90
2018-12-17T06:21:43.087Z,30.90
2018-12-17T06:22:43.083Z,30.50
2018-12-17T06:23:43.066Z,31.70
2018-12-17T06:24:43.053Z,34.10
2018-12-17T06:25:43.043Z,36.10
2018-12-17T06:26:43.032Z,37.00
2018-12-17T06:27:43.023Z,38.20
2018-12-17T06:28:43.010Z,36.40
2018-12-17T06:29:43.002Z,35.10
2018-12-17T06:30:42.992Z,34.00
2018-12-17T06:31:42.978Z,33.50
2018-12-17T06:32:42.966Z,31.40
2018-12-17T06:33:42.957Z,30.90
2018-12-17T06:34:42.944Z,29.90
2018-12-17T06:35:42.933Z,31.50
2018-12-17T06:36:42.924Z,30.10
2018-12-17T06:37:42.919Z,30.80
2018-12-17T06:38:42.938Z,29.20
2018-12-17T06:39:42.889Z,29.30
2018-12-17T06:40:42.877Z,30.40
2018-12-17T06:41:42.869Z,30.10
2018-12-17T06:42:42.855Z,29.60
2018-12-17T06:43:42.850Z,30.30
2018-12-17T06:44:42.840Z,30.10
2018-12-17T06:45:42.823Z,28.50
2018-12-17T06:46:42.816Z,29.00
2018-12-17T06:47:42.803Z,30.70
2018-12-17T06:48:42.791Z,30.50
2018-12-17T06:49:42.781Z,29.80
2018-12-17T06:50:42.768Z,30.60
2018-12-17T06:51:42.759Z,31.70
2018-12-17T06:52:42.745Z,30.50
2018-12-17T06:53:42.737Z,30.50
2018-12-17T06:54:42.725Z,30.20
2018-12-17T06:55:42.714Z,31.40
2018-12-17T06:56:42.702Z,32.70
2018-12-17T06:57:42.692Z,37.20
2018-12-17T06:58:42.682Z,36.00
2018-12-17T06:59:43.060Z,37.60
2018-12-17T07:00:42.658Z,36.60
2018-12-17T07:01:42.647Z,37.60
2018-12-17T07:02:42.636Z,36.90
2018-12-17T07:03:42.625Z,37.40
2018-12-17T07:04:42.622Z,36.90
2018-12-17T07:05:42.605Z,33.60
2018-12-17T07:06:42.597Z,34.60
2018-12-17T07:08:02.206Z,33.10
2018-12-17T07:09:24.615Z,37.30
2018-12-17T07:10:44.229Z,39.50
2018-12-17T07:12:06.145Z,32.20
2018-12-17T07:13:06.133Z,34.40
2018-12-17T07:14:48.167Z,30.80
2018-12-17T07:15:48.161Z,33.50
2018-12-17T07:16:48.145Z,33.50
2018-12-17T07:17:48.134Z,32.10
2018-12-17T07:18:48.126Z,31.80
2018-12-17T07:19:48.113Z,30.90
2018-12-17T07:20:48.104Z,30.40
2018-12-17T07:21:48.092Z,31.40
2018-12-17T07:22:48.084Z,33.00
2018-12-17T07:23:48.071Z,31.50
2018-12-17T07:24:48.059Z,31.20
2018-12-17T07:25:48.050Z,31.40
2018-12-17T07:26:48.040Z,31.40
2018-12-17T07:27:48.025Z,30.20
2018-12-17T07:28:48.015Z,31.30
2018-12-17T07:29:49.865Z,31.00
2018-12-17T07:30:47.994Z,30.50
2018-12-17T07:31:47.984Z,32.60
2018-12-17T07:32:47.973Z,32.40
2018-12-17T07:33:47.962Z,32.40
2018-12-17T07:34:47.950Z,33.70
2018-12-17T07:35:47.940Z,32.10
2018-12-17T07:36:47.929Z,32.00
2018-12-17T07:37:47.918Z,33.00
2018-12-17T07:38:47.908Z,31.90
2018-12-17T07:39:47.898Z,32.00
2018-12-17T07:40:47.886Z,30.50
2018-12-17T07:41:47.875Z,31.10
2018-12-17T07:42:47.864Z,30.60
2018-12-17T07:43:47.852Z,31.60
2018-12-17T07:44:47.841Z,31.90
2018-12-17T07:45:47.829Z,32.00
2018-12-17T07:46:47.825Z,31.00
2018-12-17T07:47:47.821Z,30.50
2018-12-17T07:48:47.797Z,30.40
2018-12-17T07:49:47.786Z,31.60
2018-12-17T07:50:47.779Z,31.20
2018-12-17T07:51:47.777Z,30.10
2018-12-17T07:52:47.753Z,30.30
2018-12-17T07:53:47.746Z,30.80
2018-12-17T07:54:47.733Z,31.00
2018-12-17T07:55:47.731Z,32.50
2018-12-17T07:56:47.711Z,32.10
2018-12-17T07:57:47.699Z,30.90
2018-12-17T07:58:47.688Z,31.80
2018-12-17T07:59:47.679Z,32.80
2018-12-17T08:00:47.665Z,33.30
2018-12-17T08:01:47.655Z,31.30
2018-12-17T08:02:47.646Z,32.20
2018-12-17T08:03:47.635Z,32.20
2018-12-17T08:04:47.622Z,32.50
2018-12-17T08:05:47.612Z,31.80
2018-12-17T08:06:47.601Z,33.10
2018-12-17T08:07:47.591Z,31.20
2018-12-17T08:08:47.581Z,31.70
2018-12-17T08:09:47.570Z,32.50
2018-12-17T08:10:47.559Z,31.30
2018-12-17T08:11:47.546Z,31.40
2018-12-17T08:12:47.537Z,31.00
2018-12-17T08:13:47.526Z,31.60
2018-12-17T08:14:47.513Z,32.50
2018-12-17T08:15:47.506Z,31.40
2018-12-17T08:16:47.495Z,30.60
2018-12-17T08:17:47.481Z,33.50
2018-12-17T08:18:47.470Z,33.60
2018-12-17T08:19:47.459Z,34.50
2018-12-17T08:20:47.452Z,34.20
2018-12-17T08:21:47.437Z,36.00
2018-12-17T08:22:47.427Z,33.40
2018-12-17T08:23:47.418Z,31.40
2018-12-17T08:24:47.408Z,34.10
2018-12-17T08:25:47.395Z,33.90
2018-12-17T08:26:47.388Z,32.80
2018-12-17T08:27:47.371Z,33.90
2018-12-17T08:28:47.445Z,32.60
2018-12-17T08:29:47.349Z,30.40
2018-12-17T08:30:47.339Z,31.70
2018-12-17T08:31:47.327Z,31.30
2018-12-17T08:32:47.317Z,31.00
2018-12-17T08:33:47.313Z,32.50
2018-12-17T08:34:47.295Z,30.90
2018-12-17T08:35:47.284Z,31.20
2018-12-17T08:36:47.273Z,29.70
2018-12-17T08:37:47.274Z,31.20
2018-12-17T08:38:47.251Z,30.70
2018-12-17T08:39:47.241Z,30.40
2018-12-17T08:40:47.233Z,31.00
2018-12-17T08:41:47.218Z,31.00
2018-12-17T08:42:47.207Z,31.10
2018-12-17T08:43:47.200Z,30.10
2018-12-17T08:44:47.188Z,30.60
2018-12-17T08:45:47.176Z,30.80
2018-12-17T08:46:47.164Z,31.20
2018-12-17T08:47:47.153Z,30.60
2018-12-17T08:48:47.143Z,31.00
2018-12-17T08:49:47.132Z,30.60
2018-12-17T08:50:47.121Z,32.10
2018-12-17T08:51:47.110Z,31.00
2018-12-17T08:52:47.103Z,31.90
2018-12-17T08:53:47.099Z,31.40
2018-12-17T08:54:47.077Z,32.20
2018-12-17T08:55:47.070Z,30.90
2018-12-17T08:56:47.055Z,31.30
2018-12-17T08:57:47.045Z,32.80
2018-12-17T08:58:47.037Z,33.10
2018-12-17T08:59:47.024Z,33.40
2018-12-17T09:00:47.013Z,34.00
2018-12-17T09:01:47.000Z,34.00
2018-12-17T09:02:46.990Z,32.00
2018-12-17T09:03:46.982Z,31.00
2018-12-17T09:04:46.968Z,32.40
2018-12-17T09:05:46.959Z,30.90
2018-12-17T09:06:46.949Z,31.40
2018-12-17T09:07:46.935Z,31.00
2018-12-17T09:08:46.925Z,30.00
2018-12-17T09:09:46.914Z,30.30
2018-12-17T09:10:46.903Z,30.70
2018-12-17T09:11:46.892Z,30.40
2018-12-17T09:12:46.883Z,31.10
2018-12-17T09:13:46.872Z,31.30
2018-12-17T09:14:46.859Z,31.30
2018-12-17T09:15:46.848Z,30.30
2018-12-17T09:16:46.837Z,31.10
2018-12-17T09:17:46.827Z,33.40
2018-12-17T09:18:46.817Z,47.90
2018-12-17T09:19:46.807Z,52.40
2018-12-17T09:20:46.803Z,63.20
2018-12-17T09:21:46.787Z,61.80
2018-12-17T09:22:46.772Z,59.10
2018-12-17T09:23:46.764Z,52.40
2018-12-17T09:24:46.750Z,45.70
2018-12-17T09:25:46.741Z,35.70
2018-12-17T09:26:46.730Z,34.70
2018-12-17T09:27:46.719Z,33.80
2018-12-17T09:29:04.846Z,33.70
2018-12-17T09:30:28.752Z,29.00
2018-12-17T09:31:28.734Z,30.80
2018-12-17T09:32:28.722Z,31.80
2018-12-17T09:33:46.846Z,31.00
2018-12-17T09:35:10.258Z,27.60
2018-12-17T09:36:10.240Z,30.60
2018-12-17T09:37:51.784Z,30.90
2018-12-17T09:38:51.770Z,30.90
2018-12-17T09:40:33.325Z,27.00
2018-12-17T09:41:33.303Z,30.60
2018-12-17T09:43:03.774Z,26.40
2018-12-17T09:44:03.917Z,28.70
2018-12-17T09:45:45.306Z,27.50
2018-12-17T09:46:45.292Z,30.20
2018-12-17T09:48:26.839Z,29.80
2018-12-17T09:49:26.824Z,29.70
2018-12-17T09:51:08.367Z,29.20
2018-12-17T09:52:08.354Z,29.90
2018-12-17T09:53:50.390Z,28.10
2018-12-17T09:54:50.425Z,31.10
2018-12-17T09:55:50.368Z,31.30
2018-12-17T09:56:50.357Z,30.50
2018-12-17T09:57:50.345Z,30.90
2018-12-17T09:58:50.335Z,30.50
2018-12-17T09:59:50.325Z,31.20
2018-12-17T10:00:50.313Z,30.80
2018-12-17T10:01:50.303Z,30.20
2018-12-17T10:02:50.292Z,30.10
2018-12-17T10:03:50.280Z,30.00
2018-12-17T10:04:50.271Z,30.60
2018-12-17T10:05:50.258Z,30.80
2018-12-17T10:06:50.248Z,31.60
2018-12-17T10:07:50.237Z,29.90
2018-12-17T10:08:50.226Z,30.00
2018-12-17T10:09:50.215Z,31.10
2018-12-17T10:10:50.203Z,31.10
2018-12-17T10:11:50.192Z,30.60
2018-12-17T10:12:50.183Z,30.80
2018-12-17T10:13:50.170Z,30.30
2018-12-17T10:14:50.160Z,30.00
2018-12-17T10:15:50.149Z,29.80
2018-12-17T10:16:50.138Z,29.80
2018-12-17T10:17:50.127Z,30.30
2018-12-17T10:18:50.118Z,29.70
2018-12-17T10:19:50.113Z,31.40
2018-12-17T10:20:50.094Z,30.70
2018-12-17T10:21:50.082Z,32.00
2018-12-17T10:22:50.071Z,46.90
2018-12-17T10:23:50.066Z,68.80
2018-12-17T10:24:50.049Z,71.00
2018-12-17T10:25:50.039Z,53.50
2018-12-17T10:26:50.098Z,59.90
2018-12-17T10:27:50.015Z,74.90
2018-12-17T10:28:50.006Z,51.00
2018-12-17T10:29:49.997Z,52.00
2018-12-17T10:30:49.982Z,46.10
2018-12-17T10:31:49.972Z,41.40
2018-12-17T10:32:49.962Z,37.80
2018-12-17T10:33:49.949Z,36.70
2018-12-17T10:34:49.938Z,33.10
2018-12-17T10:35:49.929Z,33.00
2018-12-17T10:36:49.916Z,31.20
2018-12-17T10:37:49.906Z,32.60
2018-12-17T10:38:49.896Z,32.20
2018-12-17T10:39:49.882Z,33.90
2018-12-17T10:40:49.882Z,33.50
2018-12-17T10:41:49.861Z,32.70
2018-12-17T10:42:49.849Z,32.40
2018-12-17T10:43:49.838Z,31.50
2018-12-17T10:44:49.830Z,31.00
2018-12-17T10:45:49.815Z,31.80
2018-12-17T10:46:49.805Z,32.00
2018-12-17T10:47:49.799Z,31.80
2018-12-17T10:48:49.783Z,31.20
2018-12-17T10:49:49.771Z,31.40
2018-12-17T10:50:49.764Z,33.00
2018-12-17T10:51:49.754Z,31.00
2018-12-17T10:52:49.739Z,33.20
2018-12-17T10:53:49.728Z,32.60
2018-12-17T10:54:49.717Z,32.50
2018-12-17T10:55:49.704Z,32.00
2018-12-17T10:56:49.694Z,31.40
2018-12-17T10:57:49.686Z,31.60
2018-12-17T10:58:49.672Z,32.10
2018-12-17T10:59:49.663Z,32.50
2018-12-17T11:00:49.649Z,32.70
2018-12-17T11:01:49.639Z,33.50
2018-12-17T11:02:49.626Z,31.80
2018-12-17T11:03:49.616Z,33.40
2018-12-17T11:04:49.605Z,33.40
2018-12-17T11:05:49.595Z,34.50
2018-12-17T11:06:49.583Z,39.30
2018-12-17T11:07:49.572Z,86.00
2018-12-17T11:08:49.563Z,105.70
2018-12-17T11:09:49.553Z,77.90
2018-12-17T11:10:49.538Z,95.20
2018-12-17T11:11:49.527Z,66.80
2018-12-17T11:12:49.516Z,41.60
2018-12-17T11:13:49.507Z,38.40
2018-12-17T11:14:49.494Z,34.70
2018-12-17T11:15:49.483Z,37.40
2018-12-17T11:16:49.473Z,36.90
2018-12-17T11:17:49.461Z,35.20
2018-12-17T11:18:49.449Z,39.60
2018-12-17T11:19:49.455Z,37.60
2018-12-17T11:20:49.430Z,39.40
2018-12-17T11:21:49.416Z,39.50
2018-12-17T11:22:49.407Z,40.80
2018-12-17T11:23:49.394Z,49.10
2018-12-17T11:24:49.386Z,38.90
2018-12-17T11:25:49.375Z,39.10
2018-12-17T11:26:49.361Z,38.00
2018-12-17T11:27:49.355Z,36.50
2018-12-17T11:28:49.340Z,35.80
2018-12-17T11:29:49.331Z,34.20
2018-12-17T11:30:49.316Z,34.80
2018-12-17T11:31:49.306Z,34.20
2018-12-17T11:32:49.294Z,33.90
2018-12-17T11:33:49.290Z,33.50
2018-12-17T11:34:49.273Z,34.70
2018-12-17T11:35:49.262Z,35.30
2018-12-17T11:36:49.251Z,34.60
2018-12-17T11:37:49.239Z,35.10
2018-12-17T11:38:49.227Z,33.30
2018-12-17T11:39:49.216Z,36.30
2018-12-17T11:40:49.206Z,34.90
2018-12-17T11:41:49.193Z,34.70
2018-12-17T11:42:49.186Z,35.10
2018-12-17T11:43:49.172Z,34.20
2018-12-17T11:44:49.163Z,34.90
2018-12-17T11:45:49.150Z,34.10
2018-12-17T11:46:49.139Z,35.20
2018-12-17T11:47:49.129Z,34.60
2018-12-17T11:48:49.119Z,33.60
2018-12-17T11:49:49.105Z,34.60
2018-12-17T11:50:49.096Z,33.90
2018-12-17T11:51:49.087Z,34.10
2018-12-17T11:52:49.072Z,34.40
2018-12-17T11:53:49.066Z,34.50
2018-12-17T11:54:49.053Z,36.10
2018-12-17T11:55:49.039Z,34.50
2018-12-17T11:56:49.028Z,35.30
2018-12-17T11:57:49.023Z,34.60
2018-12-17T11:58:49.006Z,33.30
2018-12-17T11:59:48.997Z,33.40
2018-12-17T12:00:53.736Z,33.20
2018-12-17T12:01:49.972Z,35.40
2018-12-17T12:02:48.962Z,33.50
2018-12-17T12:03:48.950Z,33.40
2018-12-17T12:04:48.939Z,34.80
2018-12-17T12:05:48.929Z,33.40
2018-12-17T12:06:48.917Z,34.80
2018-12-17T12:07:48.908Z,33.20
2018-12-17T12:08:48.896Z,35.00
2018-12-17T12:09:48.884Z,33.40
2018-12-17T12:10:48.874Z,33.60
2018-12-17T12:11:48.862Z,34.50
2018-12-17T12:12:48.851Z,33.60
2018-12-17T12:13:48.841Z,33.70
2018-12-17T12:14:48.829Z,35.30
2018-12-17T12:15:48.819Z,34.90
2018-12-17T12:16:48.807Z,32.70
2018-12-17T12:17:48.800Z,35.80
2018-12-17T12:18:48.788Z,36.90
2018-12-17T12:19:48.774Z,66.70
2018-12-17T12:20:48.765Z,61.90
2018-12-17T12:21:48.751Z,54.80
2018-12-17T12:22:48.741Z,81.20
2018-12-17T12:23:48.731Z,110.00
2018-12-17T12:24:48.718Z,56.40
2018-12-17T12:25:48.713Z,42.40
2018-12-17T12:26:48.699Z,47.10
2018-12-17T12:27:48.685Z,37.70
2018-12-17T12:28:48.674Z,34.60
2018-12-17T12:29:48.665Z,35.40
2018-12-17T12:30:48.653Z,35.00
2018-12-17T12:31:48.640Z,35.30
2018-12-17T12:32:48.635Z,33.80
2018-12-17T12:33:48.620Z,34.10
2018-12-17T12:34:48.608Z,35.30
2018-12-17T12:35:48.599Z,33.30
2018-12-17T12:36:48.585Z,34.60
2018-12-17T12:37:48.573Z,34.90
2018-12-17T12:38:48.563Z,35.20
2018-12-17T12:39:48.552Z,34.50
2018-12-17T12:40:48.542Z,34.10
2018-12-17T12:41:48.531Z,35.20
2018-12-17T12:42:51.796Z,35.40
2018-12-17T12:43:48.508Z,34.80
2018-12-17T12:44:48.497Z,34.00
2018-12-17T12:45:48.485Z,34.60
2018-12-17T12:46:48.474Z,33.50
2018-12-17T12:47:48.464Z,34.30
2018-12-17T12:48:48.457Z,34.40
2018-12-17T12:49:48.440Z,34.10
2018-12-17T12:50:48.431Z,33.70
2018-12-17T12:51:48.419Z,31.90
2018-12-17T12:52:48.414Z,33.50
2018-12-17T12:53:48.397Z,34.30
2018-12-17T12:54:48.387Z,32.90
2018-12-17T12:55:48.376Z,32.50
2018-12-17T12:56:48.364Z,32.00
2018-12-17T12:57:48.354Z,33.10
2018-12-17T12:58:48.342Z,32.80
2018-12-17T12:59:48.330Z,33.30
2018-12-17T13:00:48.319Z,31.80
2018-12-17T13:01:48.311Z,32.80
2018-12-17T13:02:48.298Z,32.10
2018-12-17T13:03:48.288Z,32.80
2018-12-17T13:04:48.276Z,32.80
2018-12-17T13:05:48.267Z,32.80
2018-12-17T13:06:48.255Z,32.60
2018-12-17T13:07:48.244Z,33.30
2018-12-17T13:08:48.235Z,32.20
2018-12-17T13:09:48.220Z,32.40
2018-12-17T13:10:48.210Z,31.30
2018-12-17T13:11:48.199Z,32.40
2018-12-17T13:12:48.189Z,30.90
2018-12-17T13:13:48.177Z,33.40
2018-12-17T13:14:48.165Z,31.80